Etusivu
METAR-TAF:

METAR-TAF

Lentoasemat :

Stavangerin lentoasema

Stavanger, Norja

Leveyspiiri: 58-53N, Pituuspiiri: 005-38E, korkeus merenpinnasta: 0 m

Tämänhetkinen sää

Tämä raportti tehtiin 26 minuuttia sitten, kello 03.50 UTC
Tuuli 13 kn idästä/kaakosta
Lämpötila 13°C
Kosteus 47%
Ilmanpaine 1016 hPa
Näkyvyys 10 km tai enemmän
ei pilviä alle 1500 m:ssä eikä cumulonimbus-pilviä

METAR: ENZV 230350Z 12013KT CAVOK 13/02 Q1016

Aika: 06:16 (04:16 UTC)

Sääennuste

Ennuste voimassa 23. päivästä klo 00 UTC - 23. päivään klo 24 UTC
Tuuli 8 kn etelästä/kaakosta
Näkyvyys 10 km tai enemmän
ei pilviä alle 1500 m:ssä eikä cumulonimbus-pilviä
Tulossa
23. päivästä klo 07 UTC - 23. päivään klo 10 UTC
Tuuli 20 kn etelästä/kaakosta puuskistuen 30 kn:hen
Tulossa
23. päivästä klo 18 UTC - 23. päivään klo 20 UTC
Tuuli 8 kn idästä/kaakosta

TAF: ENZV 2300/2324 15008KT CAVOK BECMG 2307/2310 15020G30KT BECMG 2318/2320 12008KT

Säähavainnot ja -ennusteet yli 4000 lentoasemalta (METAR- ja TAF-raportit).

Käytössä olevat sääasemat on merkitty karttaan keltaisilla ja punaisilla pisteillä.

Aseta hiiri pisteen päälle nähdäksesi sääaseman nimen.

Klikkaa sitten nähdäksesi säähavainnot ja -ennusteet.

Kartan vaihtaminen: klikkaa mustalla rastilla varustettuja vihreitä pisteitä, niin voit zoomata sisään; viivalla varustettua vihreää pistettä, niin voit zoomata ulos tai vihreitä nuolia, niin pääset viereisille kartoille.


METAR-TAF: